Latest Weather Observations for Rhyll

IDV60801

Issued at 5:22 pm EST Sunday 18 August 2019 (issued every 10 minutes, with the page automatically refreshed every 10 minutes)

About weather observations | Map of weather stations | Latest weather observations for VIC | Other Formats
Station Details ID: 086373 Name: RHYLL Lat: -38.46 Lon: 145.31 Height: 13.4 m
Data from the previous 72 hours. | See also: Recent months at Rhyll
Date/Time
EST
Temp
°C
App
Temp
°C
Dew
Point
°C
Rel
Hum
%
Delta-T
°C
Wind Press
QNH
hPa
Press
MSL
hPa
Rain since
9am
mm
Dir  Spd
km/h
Gust
km/h
Spd
kts
Gust
kts
18/05:00pm 10.7 4.6 6.8 77 1.9 NNW 28 41 15 22 1003.9 1003.9 4.0
18/04:30pm 10.3 3.6 7.4 82 1.4 N 32 43 17 23 1003.8 1003.8 4.0
18/04:00pm 10.3 7.4 8.1 86 1.1 WNW 13 24 7 13 1004.6 1004.6 3.0
18/03:30pm 11.2 7.9 8.2 82 1.5 W 15 28 8 15 1004.2 1004.2 1.0
18/03:00pm 13.1 10.8 7.3 68 2.8 WNW 9 19 5 10 1003.8 1003.8 0.2
18/02:30pm 14.6 12.0 5.9 56 4.2 NW 9 19 5 10 1003.5 1003.5 0.0
18/02:00pm 15.0 10.4 5.5 53 4.5 NW 19 32 10 17 1003.4 1003.4 0.0
18/01:30pm 15.8 10.5 5.1 49 5.1 NNW 22 43 12 23 1003.6 1003.6 0.0
18/01:00pm 16.9 12.0 3.9 42 6.1 NW 19 43 10 23 1003.7 1003.7 0.0
18/12:30pm 17.4 11.8 3.7 40 6.4 NW 22 41 12 22 1003.8 1003.8 0.0
18/12:00pm 18.1 13.3 4.7 41 6.4 NNW 19 35 10 19 1004.1 1004.1 0.0
18/11:30am 17.5 9.8 5.4 45 5.8 N 35 48 19 26 1004.3 1004.3 0.0
18/11:00am 17.1 9.4 6.9 51 5.1 N 37 54 20 29 1004.7 1004.7 0.0
18/10:30am 16.8 10.1 5.4 47 5.5 NNE 30 48 16 26 1004.2 1004.2 0.0
18/10:05am 16.8 9.8 6.0 49 5.3 NNE 32 56 17 30 1004.5 1004.5 0.0
18/10:00am 16.6 10.4 6.1 50 5.1 NNE 28 43 15 23 1004.8 1004.8 0.0
18/09:30am 15.5 9.8 6.5 55 4.4 NNE 26 35 14 19 1005.6 1005.6 0.0
18/09:00am 13.7 9.7 6.8 63 3.3 NNE 17 28 9 15 1006.4 1006.4 0.0
18/08:30am 12.7 8.6 6.1 64 3.1 NNE 17 22 9 12 1006.9 1006.9 0.0
18/08:00am 11.5 8.2 6.4 71 2.4 NNE 13 17 7 9 1007.4 1007.4 0.0
18/07:30am 9.7 6.4 6.2 79 1.6 ENE 13 15 7 8 1007.8 1007.8 0.0
18/07:00am 9.7 5.2 5.9 77 1.7 ENE 19 24 10 13 1008.3 1008.3 0.0
18/06:30am 10.7 6.2 5.9 72 2.2 ENE 19 30 10 16 1008.4 1008.4 0.0
18/06:00am 11.7 6.8 4.9 63 3.1 N 20 30 11 16 1008.8 1008.8 0.0
18/05:30am 10.0 7.7 5.8 75 1.9 N 7 13 4 7 1009.6 1009.6 0.0
18/05:00am 9.5 5.8 6.2 80 1.5 ENE 15 19 8 10 1009.5 1009.5 0.0
18/04:30am 10.1 6.4 6.1 76 1.9 NE 15 19 8 10 1010.1 1010.1 0.0
18/04:00am 10.3 7.5 5.1 70 2.4 NNE 9 17 5 9 1010.6 1010.6 0.0
18/03:30am 10.4 6.6 5.6 72 2.2 N 15 19 8 10 1011.0 1011.0 0.0
18/03:00am 10.1 5.5 6.3 77 1.8 NNE 20 26 11 14 1011.1 1011.1 0.0
18/02:30am 9.0 4.9 6.1 82 1.3 NE 17 22 9 12 1012.0 1012.0 0.0
18/02:00am 9.4 4.4 6.5 82 1.3 NE 22 26 12 14 1012.3 1012.3 0.0
18/01:30am 9.2 5.8 6.1 81 1.4 NNE 13 20 7 11 1013.0 1013.0 0.0
18/01:00am 9.3 5.6 6.4 82 1.3 NNE 15 22 8 12 1013.7 1013.7 0.0
18/12:30am 9.5 5.0 6.8 83 1.3 NNE 20 26 11 14 1013.8 1013.8 0.0
18/12:00am 9.1 4.8 7.1 87 0.9 NE 19 20 10 11 1014.3 1014.3 0.0
 
Date/Time
EST
Temp
°C
App
Temp
°C
Dew
Point
°C
Rel
Hum
%
Delta-T
°C
Wind Press
QNH
hPa
Press
MSL
hPa
Rain since
9am
mm
Dir  Spd
km/h
Gust
km/h
Spd
kts
Gust
kts
17/11:30pm 9.3 4.4 7.1 86 1.0 NE 22 28 12 15 1014.9 1014.9 0.0
17/11:00pm 9.8 5.0 7.4 85 1.1 NE 22 24 12 13 1014.9 1014.9 0.0
17/10:30pm 9.7 6.2 7.3 85 1.1 NNE 15 20 8 11 1015.6 1015.6 0.0
17/10:00pm 9.8 6.0 7.4 85 1.1 NNE 17 24 9 13 1016.0 1016.0 0.0
17/09:30pm 9.8 6.7 7.4 85 1.1 NNE 13 19 7 10 1016.2 1016.2 0.0
17/09:00pm 10.0 6.2 7.4 84 1.2 NE 17 20 9 11 1016.2 1016.2 0.0
17/08:30pm 10.3 6.2 7.7 84 1.2 NE 19 20 10 11 1016.4 1016.4 0.0
17/08:00pm 10.3 6.9 7.7 84 1.2 NE 15 19 8 10 1016.6 1016.6 0.0
17/07:30pm 10.5 7.2 8.1 85 1.2 NE 15 15 8 8 1016.6 1016.6 0.0
17/07:00pm 10.6 9.2 7.3 80 1.6 ESE 4 6 2 3 1016.5 1016.5 0.0
17/06:30pm 10.4 8.8 6.4 76 1.9 E 4 7 2 4 1016.7 1016.7 0.0
17/06:00pm 10.7 9.0 6.1 73 2.1 E 4 6 2 3 1016.8 1016.8 0.0
17/05:30pm 11.1 10.1 5.8 70 2.5 CALM 0 0 0 0 1017.1 1017.1 0.0
17/05:00pm 12.1 11.2 5.9 66 2.9 CALM 0 0 0 0 1017.3 1017.3 0.0
17/04:30pm 12.7 11.9 6.5 66 3.0 CALM 0 0 0 0 1017.2 1017.2 0.0
17/04:00pm 12.9 12.1 6.3 64 3.1 CALM 0 0 0 0 1017.2 1017.2 0.0
17/03:30pm 13.4 12.6 6.7 64 3.2 CALM 0 0 0 0 1017.4 1017.4 0.0
17/03:00pm 13.5 12.7 6.6 63 3.3 CALM 0 0 0 0 1017.9 1017.9 0.0
17/02:30pm 13.7 12.8 7.9 68 2.9 SE 2 6 1 3 1018.1 1018.1 0.0
17/02:00pm 13.7 12.3 8.7 72 2.5 SE 6 7 3 4 1018.4 1018.4 0.0
17/01:30pm 13.3 11.7 8.0 70 2.6 ESE 6 7 3 4 1019.1 1019.1 0.0
17/01:00pm 13.1 11.5 7.8 70 2.6 SE 6 6 3 3 1019.7 1019.7 0.0
17/12:30pm 12.9 12.2 7.1 68 2.8 CALM 0 2 0 1 1020.1 1020.1 0.0
17/12:00pm 13.6 13.0 7.2 65 3.1 CALM 0 2 0 1 1020.7 1020.7 0.0
17/11:30am 13.8 13.0 6.4 61 3.5 CALM 0 0 0 0 1021.0 1021.0 0.0
17/11:00am 14.5 13.3 8.0 65 3.2 E 4 6 2 3 1021.1 1021.1 0.0
17/10:30am 14.0 13.2 6.6 61 3.6 CALM 0 2 0 1 1021.3 1021.3 0.0
17/10:00am 12.2 10.5 6.0 66 2.9 NNW 4 6 2 3 1021.5 1021.5 0.0
17/09:30am 11.8 10.8 8.8 82 1.5 NE 4 6 2 3 1021.9 1021.9 0.0
17/09:00am 9.7 7.8 7.5 86 1.0 NE 7 9 4 5 1022.0 1022.0 2.2
17/08:30am 9.8 7.5 7.6 86 1.1 ENE 9 13 5 7 1021.8 1021.8 2.2
17/08:00am 9.8 7.5 7.6 86 1.0 ENE 9 13 5 7 1021.7 1021.7 2.2
17/07:30am 10.2 7.9 7.4 83 1.3 ENE 9 11 5 6 1021.4 1021.4 2.2
17/07:00am 9.8 8.4 3.3 64 2.8 CALM 0 0 0 0 1021.2 1021.2 2.2
17/06:30am 10.2 7.9 3.0 61 3.1 SW 4 6 2 3 1020.9 1020.9 2.2
17/06:00am 9.6 8.3 4.2 69 2.4 CALM 0 0 0 0 1020.7 1020.7 2.2
17/05:30am 9.5 8.2 4.1 69 2.4 CALM 0 0 0 0 1020.7 1020.7 2.2
17/05:00am 9.9 8.2 3.9 66 2.6 SSW 2 4 1 2 1020.4 1020.4 2.2
17/04:30am 10.3 8.2 4.0 65 2.8 SW 4 6 2 3 1020.4 1020.4 2.2
17/04:00am 10.3 8.4 4.9 69 2.4 SW 4 6 2 3 1020.1 1020.1 2.2
17/03:30am 10.3 8.2 4.0 65 2.8 SW 4 9 2 5 1020.1 1020.1 2.2
17/03:00am 10.1 7.6 4.0 66 2.7 WSW 6 9 3 5 1020.3 1020.3 2.2
17/02:30am 10.1 7.7 4.5 68 2.5 SW 6 7 3 4 1020.2 1020.2 2.2
17/02:00am 10.2 7.9 4.8 69 2.4 SSW 6 11 3 6 1020.1 1020.1 2.2
17/01:30am 10.4 7.4 4.3 66 2.7 SSW 9 13 5 7 1020.2 1020.2 2.2
17/01:00am 10.6 7.9 3.6 62 3.1 SW 7 11 4 6 1020.1 1020.1 2.2
17/12:30am 10.7 7.6 3.5 61 3.2 SW 9 19 5 10 1020.4 1020.4 2.2
17/12:00am 10.9 6.7 3.9 62 3.1 SW 15 24 8 13 1020.1 1020.1 2.2
 
Date/Time
EST
Temp
°C
App
Temp
°C
Dew
Point
°C
Rel
Hum
%
Delta-T
°C
Wind Press
QNH
hPa
Press
MSL
hPa
Rain since
9am
mm
Dir  Spd
km/h
Gust
km/h
Spd
kts
Gust
kts
16/11:30pm 10.7 6.4 3.3 60 3.2 SSW 15 24 8 13 1019.8 1019.8 2.2
16/11:00pm 10.8 7.0 4.0 63 3.0 SSW 13 22 7 12 1019.7 1019.7 2.2
16/10:30pm 10.6 7.2 4.1 64 2.9 SW 11 20 6 11 1019.4 1019.4 2.2
16/10:00pm 10.4 6.2 3.9 64 2.9 SW 15 26 8 14 1019.4 1019.4 2.2
16/09:30pm 10.6 7.2 6.0 73 2.1 SW 13 20 7 11 1019.2 1019.2 2.2
16/09:00pm 10.4 6.5 5.4 71 2.3 SW 15 24 8 13 1019.0 1019.0 2.2
16/08:30pm 10.4 6.9 5.6 72 2.2 SW 13 24 7 13 1018.6 1018.6 2.2
16/08:00pm 10.5 7.1 6.1 74 2.0 SW 13 24 7 13 1018.3 1018.3 2.2
16/07:30pm 10.5 6.8 6.3 75 2.0 SW 15 22 8 12 1018.0 1018.0 2.2
16/07:00pm 10.2 6.6 6.9 80 1.6 SW 15 24 8 13 1017.5 1017.5 2.2
16/06:30pm 9.6 6.5 7.2 85 1.1 SW 13 24 7 13 1017.0 1017.0 2.2
16/06:00pm 9.8 6.3 7.2 84 1.2 SW 15 28 8 15 1016.4 1016.4 2.0
16/05:30pm 10.2 7.5 7.4 83 1.3 WSW 11 20 6 11 1015.9 1015.9 1.8
16/05:00pm 10.9 7.0 7.2 78 1.8 SW 17 33 9 18 1015.3 1015.3 1.8
16/04:30pm 10.8 7.0 7.7 81 1.5 WSW 17 30 9 16 1014.7 1014.7 1.8
16/04:00pm 11.3 8.1 8.5 83 1.4 WSW 15 30 8 16 1014.1 1014.1 1.8
16/03:30pm 11.6 8.9 9.0 84 1.3 WSW 13 24 7 13 1013.7 1013.7 1.6
16/03:00pm 11.9 7.9 8.4 79 1.7 WSW 19 30 10 16 1013.2 1013.2 1.6
16/02:30pm 11.9 7.8 8.6 80 1.6 WSW 20 32 11 17 1012.7 1012.7 1.6
16/02:00pm 11.5 8.7 9.9 90 0.8 WSW 15 26 8 14 1012.3 1012.3 1.6
16/01:30pm 11.4 8.8 9.3 87 1.1 WNW 13 24 7 13 1012.0 1012.0 1.2
16/01:00pm 11.7 8.9 8.4 80 1.6 WNW 13 22 7 12 1011.9 1011.9 0.6
16/12:30pm 13.6 10.8 5.3 57 3.9 NW 9 19 5 10 1011.5 1011.5 0.0
16/12:00pm 13.9 9.2 5.3 56 4.0 NNW 19 30 10 16 1011.3 1011.3 0.0
16/11:30am 13.8 6.6 4.9 55 4.1 NNW 32 43 17 23 1011.4 1011.4 0.0
16/11:00am 13.7 6.2 4.6 54 4.2 NNW 33 48 18 26 1011.5 1011.5 0.0
16/10:30am 13.6 6.8 5.0 56 4.0 NNW 30 43 16 23 1011.7 1011.7 0.0
16/10:00am 13.9 7.9 5.3 56 4.0 NNW 26 39 14 21 1011.9 1011.9 0.0
16/09:30am 13.5 5.9 3.8 52 4.4 N 33 46 18 25 1011.7 1011.7 0.0
16/09:00am 12.7 5.7 4.2 56 3.9 NNW 30 39 16 21 1011.6 1011.6 0.2
16/08:30am 12.4 4.8 3.9 56 3.8 N 33 41 18 22 1011.6 1011.6 0.2
16/08:00am 12.1 3.8 4.1 58 3.6 N 37 46 20 25 1011.2 1011.2 0.2
16/07:30am 12.3 3.6 4.3 58 3.6 N 39 50 21 27 1011.4 1011.4 0.2
16/07:00am 11.9 2.6 5.1 63 3.1 N 43 52 23 28 1012.2 1012.2 0.0
16/06:30am 12.7 4.0 3.9 55 4.0 N 39 50 21 27 1011.2 1011.2 0.0
16/06:00am 13.3 4.5 3.4 51 4.4 N 39 48 21 26 1011.5 1011.5 0.0
16/05:30am 13.2 5.6 3.8 53 4.2 N 33 44 18 24 1012.3 1012.3 0.0
16/05:00am 13.6 5.2 3.7 51 4.5 N 37 46 20 25 1012.6 1012.6 0.0
16/04:30am 13.4 5.1 4.0 53 4.3 NNW 37 54 20 29 1012.5 1012.5 0.0
16/04:00am 13.7 6.6 3.8 51 4.5 NNW 30 41 16 22 1012.4 1012.4 0.0
16/03:30am 13.2 5.9 4.4 55 4.0 N 32 41 17 22 1013.0 1013.0 0.0
16/03:00am 13.3 6.0 4.5 55 4.0 NNW 32 39 17 21 1013.1 1013.1 0.0
16/02:30am 13.2 6.4 5.1 58 3.8 NNW 30 37 16 20 1013.5 1013.5 0.0
16/02:00am 13.3 6.1 5.2 58 3.8 NNW 32 39 17 21 1013.7 1013.7 0.0
16/01:30am 12.9 7.7 5.6 61 3.4 NNW 22 35 12 19 1014.1 1014.1 0.0
16/01:00am 12.3 7.9 6.6 68 2.7 NNW 19 24 10 13 1014.6 1014.6 0.0
16/12:30am 12.9 8.4 6.3 64 3.1 NNW 19 28 10 15 1015.3 1015.3 0.0
16/12:00am 12.8 8.4 6.4 65 3.0 NNW 19 28 10 15 1015.8 1015.8 0.0
 
Date/Time
EST
Temp
°C
App
Temp
°C
Dew
Point
°C
Rel
Hum
%
Delta-T
°C
Wind Press
QNH
hPa
Press
MSL
hPa
Rain since
9am
mm
Dir  Spd
km/h
Gust
km/h
Spd
kts
Gust
kts
15/11:30pm 13.3 7.4 5.7 60 3.6 NNW 26 33 14 18 1016.0 1016.0 0.0
15/11:00pm 13.3 7.4 5.9 61 3.5 N 26 33 14 18 1015.8 1015.8 0.0
15/10:30pm 13.0 7.3 6.6 65 3.1 NNW 26 32 14 17 1016.4 1016.4 0.0
15/10:00pm 13.3 6.7 6.2 62 3.4 N 30 37 16 20 1016.7 1016.7 0.0
15/09:30pm 12.7 6.7 7.0 68 2.7 N 28 33 15 18 1016.9 1016.9 0.0
15/09:00pm 12.9 6.8 6.7 66 3.0 NNW 28 33 15 18 1017.5 1017.5 0.0
15/08:30pm 12.4 7.9 7.1 70 2.6 NNW 20 28 11 15 1017.7 1017.7 0.0
15/08:00pm 12.4 7.2 7.1 70 2.5 NNW 24 30 13 16 1017.8 1017.8 0.0
15/07:30pm 12.7 6.9 6.3 65 3.0 NNW 26 33 14 18 1017.7 1017.7 0.0
15/07:00pm 12.7 7.7 6.5 66 2.9 NNW 22 28 12 15 1017.6 1017.6 0.0
15/06:30pm 12.9 5.8 6.3 64 3.1 NNW 33 41 18 22 1017.5 1017.5 0.0
15/06:00pm 13.2 6.6 5.9 61 3.4 NNW 30 39 16 21 1017.7 1017.7 0.0
15/05:30pm 13.4 6.7 5.6 59 3.7 NNW 30 43 16 23 1017.5 1017.5 0.0

Other formats

Comma delimited format used in spreadsheet applications
http://www.bom.gov.au/fwo/IDV60801/IDV60801.94892.axf

JavaScript Object Notation format (JSON) in row-major order
http://www.bom.gov.au/fwo/IDV60801/IDV60801.94892.json

Data quality

Most of these data are generated automatically and are frequently updated. Quality checks on data are not normally performed. It is possible for incorrect values to appear. Refer to information at About Latest Weather Observations and please check the disclaimer before using these data.